createdAt,value
2023-04-04T00:01:08.566Z,1.49
2023-04-04T00:04:11.700Z,1.55
2023-04-04T00:07:14.020Z,1.65
2023-04-04T00:10:17.720Z,1.67
2023-04-04T00:13:20.113Z,1.64
2023-04-04T00:16:23.313Z,1.77
2023-04-04T00:19:25.977Z,1.79
2023-04-04T00:22:28.560Z,1.80
2023-04-04T00:25:30.873Z,1.68
2023-04-04T00:28:33.573Z,1.63
2023-04-04T00:31:36.074Z,1.61
2023-04-04T00:34:38.723Z,1.67
2023-04-04T00:37:41.254Z,1.61
2023-04-04T00:40:51.024Z,1.64
2023-04-04T00:43:54.893Z,1.60
2023-04-04T00:46:57.767Z,1.56
2023-04-04T00:50:00.811Z,1.56
2023-04-04T00:53:04.328Z,1.54
2023-04-04T00:56:09.168Z,1.50
2023-04-04T00:59:11.991Z,1.51
2023-04-04T01:02:14.548Z,1.43
2023-04-04T01:05:17.363Z,1.34
2023-04-04T01:08:21.723Z,1.12
2023-04-04T01:11:24.665Z,1.22
2023-04-04T01:14:27.207Z,1.21
2023-04-04T01:17:30.038Z,1.20
2023-04-04T01:20:33.943Z,1.22
2023-04-04T01:23:44.940Z,1.19
2023-04-04T01:26:48.342Z,1.24
2023-04-04T01:29:51.106Z,1.15
2023-04-04T01:32:59.225Z,1.14
2023-04-04T01:36:17.232Z,1.19
2023-04-04T01:39:27.614Z,1.23
2023-04-04T01:42:30.780Z,1.27
2023-04-04T01:45:33.924Z,1.33
2023-04-04T01:48:37.816Z,1.30
2023-04-04T01:51:41.213Z,1.26
2023-04-04T01:54:43.965Z,1.34
2023-04-04T01:57:47.174Z,1.31
2023-04-04T02:00:49.950Z,1.34
2023-04-04T02:03:53.184Z,1.41
2023-04-04T02:06:57.153Z,1.31
2023-04-04T02:09:59.784Z,1.29
2023-04-04T02:13:02.442Z,1.24
2023-04-04T02:16:05.473Z,1.23
2023-04-04T02:19:07.848Z,1.20
2023-04-04T02:22:11.640Z,1.23
2023-04-04T02:25:14.084Z,1.22
2023-04-04T02:28:18.902Z,1.15
2023-04-04T02:31:23.779Z,1.16
2023-04-04T02:34:26.554Z,1.11
2023-04-04T02:37:29.194Z,1.03
2023-04-04T02:40:31.848Z,1.00
2023-04-04T02:43:34.618Z,1.12
2023-04-04T02:46:40.402Z,1.04
2023-04-04T02:49:43.501Z,1.03
2023-04-04T02:52:47.054Z,1.11
2023-04-04T02:55:49.845Z,1.11
2023-04-04T02:58:52.929Z,1.04
2023-04-04T03:01:55.226Z,0.96
2023-04-04T03:04:57.918Z,0.95
2023-04-04T03:08:00.742Z,0.98
2023-04-04T03:11:03.428Z,0.99
2023-04-04T03:14:06.546Z,0.97
2023-04-04T03:17:10.742Z,0.97
2023-04-04T03:20:13.937Z,1.08
2023-04-04T03:23:16.665Z,1.07
2023-04-04T03:26:19.267Z,0.96
2023-04-04T03:29:22.560Z,0.95
2023-04-04T03:32:25.793Z,0.79
2023-04-04T03:35:28.432Z,0.72
2023-04-04T03:38:30.900Z,0.73
2023-04-04T03:41:33.514Z,0.68
2023-04-04T03:44:37.765Z,0.66
2023-04-04T03:47:40.447Z,0.57
2023-04-04T03:50:42.992Z,0.62
2023-04-04T03:53:45.958Z,0.48
2023-04-04T03:56:48.203Z,0.43
2023-04-04T03:59:51.077Z,0.46
2023-04-04T04:02:54.337Z,0.58
2023-04-04T04:05:57.344Z,0.45
2023-04-04T04:08:59.661Z,0.44
2023-04-04T04:12:03.445Z,0.51
2023-04-04T04:15:05.929Z,0.56
2023-04-04T04:18:09.316Z,0.53
2023-04-04T04:21:12.023Z,0.48
2023-04-04T04:24:16.568Z,0.55
2023-04-04T04:27:19.040Z,0.53
2023-04-04T04:30:21.982Z,0.53
2023-04-04T04:33:30.555Z,0.55
2023-04-04T04:36:33.386Z,0.42
2023-04-04T04:39:36.525Z,0.43
2023-04-04T04:42:44.060Z,0.34
2023-04-04T04:45:46.498Z,0.27
2023-04-04T04:48:49.323Z,0.30
2023-04-04T04:51:53.690Z,0.35
2023-04-04T04:54:56.565Z,0.28
2023-04-04T04:57:59.127Z,0.37
2023-04-04T05:01:02.131Z,0.39
2023-04-04T05:04:07.383Z,0.35
2023-04-04T05:07:12.485Z,0.40
2023-04-04T05:10:15.898Z,0.38
2023-04-04T05:13:19.229Z,0.35
2023-04-04T05:16:21.894Z,0.34
2023-04-04T05:19:25.362Z,0.44
2023-04-04T05:22:28.724Z,0.39
2023-04-04T05:25:31.792Z,0.39
2023-04-04T05:28:34.791Z,0.35
2023-04-04T05:31:38.087Z,0.45
2023-04-04T05:34:41.263Z,0.43
2023-04-04T05:37:45.215Z,0.37
2023-04-04T05:40:48.178Z,0.45
2023-04-04T05:43:51.593Z,0.51
2023-04-04T05:46:57.040Z,0.63
2023-04-04T05:50:01.085Z,0.59
2023-04-04T05:53:04.830Z,0.57
2023-04-04T05:56:07.532Z,0.64
2023-04-04T05:59:10.209Z,0.72
2023-04-04T06:02:14.582Z,0.87
2023-04-04T06:05:18.003Z,1.00
2023-04-04T06:08:20.474Z,1.09
2023-04-04T06:11:23.409Z,1.27
2023-04-04T06:14:26.408Z,1.25
2023-04-04T06:17:29.168Z,1.39
2023-04-04T06:20:33.153Z,1.60
2023-04-04T06:23:37.828Z,1.76
2023-04-04T06:26:41.194Z,1.99
2023-04-04T06:29:44.071Z,2.28
2023-04-04T06:32:47.596Z,2.51
2023-04-04T06:35:51.485Z,2.76
2023-04-04T06:38:55.358Z,3.08
2023-04-04T06:41:58.169Z,3.26
2023-04-04T06:45:00.934Z,3.22
2023-04-04T06:48:03.710Z,3.50
2023-04-04T06:51:09.276Z,3.42
2023-04-04T06:54:13.072Z,3.34
2023-04-04T06:57:15.311Z,3.56
2023-04-04T07:00:18.178Z,3.12
2023-04-04T07:03:21.199Z,3.28
2023-04-04T07:06:25.900Z,3.28
2023-04-04T07:09:29.564Z,3.48
2023-04-04T07:12:33.189Z,3.64
2023-04-04T07:15:35.660Z,3.67
2023-04-04T07:18:38.268Z,3.78
2023-04-04T07:21:40.610Z,3.49
2023-04-04T07:24:43.208Z,3.36
2023-04-04T07:27:45.548Z,3.44
2023-04-04T07:30:48.399Z,3.49
2023-04-04T07:33:53.557Z,3.60
2023-04-04T07:36:56.178Z,3.69
2023-04-04T07:39:58.518Z,3.96
2023-04-04T07:43:01.268Z,3.91
2023-04-04T07:46:03.554Z,4.47
2023-04-04T07:49:08.081Z,5.02
2023-04-04T07:52:10.653Z,6.05
2023-04-04T07:55:14.484Z,7.29
2023-04-04T07:58:18.533Z,6.37
2023-04-04T08:01:21.432Z,5.27
2023-04-04T08:04:24.013Z,5.54
2023-04-04T08:07:28.140Z,6.46
2023-04-04T08:10:32.623Z,5.15
2023-04-04T08:13:34.898Z,5.52
2023-04-04T08:16:38.560Z,4.62
2023-04-04T08:19:40.882Z,4.79
2023-04-04T08:22:43.587Z,5.36
2023-04-04T08:25:46.581Z,5.83
2023-04-04T08:28:49.183Z,6.50
2023-04-04T08:31:54.083Z,6.28
2023-04-04T08:34:56.786Z,6.16
2023-04-04T08:37:59.353Z,5.99
2023-04-04T08:41:02.001Z,5.98
2023-04-04T08:44:05.183Z,6.25
2023-04-04T08:47:09.599Z,6.38
2023-04-04T08:50:12.192Z,6.03
2023-04-04T08:53:16.060Z,6.89
2023-04-04T08:56:18.572Z,7.96
2023-04-04T08:59:21.523Z,7.10
2023-04-04T09:02:28.127Z,6.80
2023-04-04T09:05:31.048Z,6.48
2023-04-04T09:08:34.532Z,6.35
2023-04-04T09:11:38.498Z,6.57
2023-04-04T09:14:42.114Z,5.57
2023-04-04T09:17:44.883Z,6.09
2023-04-04T09:20:48.050Z,6.27
2023-04-04T09:24:00.415Z,5.84
2023-04-04T09:27:03.348Z,6.59
2023-04-04T09:30:06.352Z,6.03
2023-04-04T09:33:10.186Z,6.58
2023-04-04T09:36:13.449Z,6.09
2023-04-04T09:39:16.766Z,6.12
2023-04-04T09:42:19.697Z,6.40
2023-04-04T09:45:32.262Z,6.33
2023-04-04T09:48:41.189Z,6.55
2023-04-04T09:51:48.221Z,6.66
2023-04-04T09:54:58.713Z,6.23
2023-04-04T10:01:14.327Z,6.73
2023-04-04T10:04:18.525Z,7.52
2023-04-04T10:07:21.714Z,6.55
2023-04-04T10:10:31.507Z,7.01
2023-04-04T10:13:36.133Z,7.54
2023-04-04T10:16:44.624Z,7.49
2023-04-04T10:19:47.902Z,7.63
2023-04-04T10:22:51.713Z,7.78
2023-04-04T10:25:54.505Z,8.24
2023-04-04T10:28:58.118Z,7.77
2023-04-04T10:32:05.165Z,7.19
2023-04-04T10:35:10.958Z,7.42
2023-04-04T10:38:13.820Z,7.24
2023-04-04T10:41:17.355Z,7.73
2023-04-04T10:44:31.863Z,7.04
2023-04-04T10:47:34.730Z,8.15
2023-04-04T10:50:39.406Z,8.59
2023-04-04T10:53:42.642Z,8.25
2023-04-04T10:56:45.279Z,8.59
2023-04-04T11:00:13.822Z,8.16
2023-04-04T11:03:16.208Z,8.95
2023-04-04T11:06:18.787Z,9.19
2023-04-04T11:09:40.010Z,10.92
2023-04-04T11:12:45.212Z,11.67
2023-04-04T11:15:56.673Z,12.95
2023-04-04T11:18:59.676Z,10.06
2023-04-04T11:22:03.192Z,9.96
2023-04-04T11:25:24.889Z,9.55
2023-04-04T11:28:33.290Z,10.38
2023-04-04T11:31:40.299Z,10.63
2023-04-04T11:34:43.429Z,11.64
2023-04-04T11:38:06.733Z,12.26
2023-04-04T11:41:10.561Z,13.35
2023-04-04T11:44:13.234Z,11.72
2023-04-04T11:47:19.106Z,12.05
2023-04-04T11:50:26.538Z,11.59
2023-04-04T11:53:31.069Z,12.09
2023-04-04T11:56:35.599Z,12.44
2023-04-04T11:59:42.546Z,13.91
2023-04-04T12:02:45.857Z,12.52
2023-04-04T12:05:49.312Z,12.94
2023-04-04T12:08:51.780Z,12.58
2023-04-04T12:11:54.881Z,12.71
2023-04-04T12:15:10.533Z,15.04
2023-04-04T12:18:20.999Z,13.15
2023-04-04T12:21:24.283Z,11.86
2023-04-04T12:24:27.706Z,13.65
2023-04-04T12:27:30.570Z,12.78
2023-04-04T12:30:33.321Z,11.80
2023-04-04T12:33:37.026Z,11.89
2023-04-04T12:36:40.576Z,13.71
2023-04-04T12:39:48.425Z,13.65
2023-04-04T12:42:51.214Z,13.21
2023-04-04T12:45:54.577Z,15.01
2023-04-04T12:48:57.620Z,14.10
2023-04-04T12:52:04.464Z,11.91
2023-04-04T12:55:10.750Z,11.45
2023-04-04T12:58:13.130Z,13.23
2023-04-04T13:01:17.319Z,14.00
2023-04-04T13:04:22.132Z,13.04
2023-04-04T13:07:27.552Z,13.46
2023-04-04T13:10:31.050Z,11.92
2023-04-04T13:13:37.600Z,10.81
2023-04-04T13:16:40.748Z,10.97
2023-04-04T13:19:43.542Z,10.60
2023-04-04T13:22:46.084Z,10.27
2023-04-04T13:25:48.828Z,10.73
2023-04-04T13:28:51.148Z,10.88
2023-04-04T13:31:53.815Z,10.78
2023-04-04T13:34:56.259Z,12.41
2023-04-04T13:37:59.914Z,12.62
2023-04-04T13:41:02.577Z,10.04
2023-04-04T13:44:05.182Z,10.33
2023-04-04T13:47:07.656Z,11.60
2023-04-04T13:50:10.998Z,11.03
2023-04-04T13:53:13.356Z,12.40
2023-04-04T13:56:18.996Z,11.92
2023-04-04T13:59:21.877Z,10.48
2023-04-04T14:02:25.097Z,10.51
2023-04-04T14:05:27.734Z,10.74
2023-04-04T14:08:30.581Z,9.85
2023-04-04T14:11:34.108Z,10.26
2023-04-04T14:14:37.951Z,10.81
2023-04-04T14:17:40.954Z,12.17
2023-04-04T14:20:43.533Z,12.28
2023-04-04T14:23:46.326Z,12.03
2023-04-04T14:26:48.629Z,12.12
2023-04-04T14:29:51.316Z,10.57
2023-04-04T14:32:54.235Z,10.04
2023-04-04T14:35:56.987Z,10.85
2023-04-04T14:38:59.326Z,10.59
2023-04-04T14:42:02.300Z,10.85
2023-04-04T14:45:07.493Z,10.52
2023-04-04T14:48:10.991Z,9.90
2023-04-04T14:51:13.726Z,9.79
2023-04-04T14:54:16.339Z,9.23
2023-04-04T14:57:18.821Z,9.29
2023-04-04T15:00:23.890Z,9.40
2023-04-04T15:03:27.143Z,9.12
2023-04-04T15:06:36.059Z,9.27
2023-04-04T15:09:38.512Z,9.45
2023-04-04T15:12:41.617Z,9.00
2023-04-04T15:15:44.345Z,8.85
2023-04-04T15:18:46.916Z,8.86
2023-04-04T15:21:49.608Z,8.99
2023-04-04T15:24:52.269Z,8.93
2023-04-04T15:27:54.533Z,8.44
2023-04-04T15:31:00.709Z,8.57
2023-04-04T15:34:03.108Z,8.68
2023-04-04T15:37:05.997Z,8.49
2023-04-04T15:40:08.938Z,8.17
2023-04-04T15:43:14.122Z,8.17
2023-04-04T15:46:16.504Z,8.35
2023-04-04T15:49:19.172Z,8.05
2023-04-04T15:52:21.446Z,7.91
2023-04-04T15:55:24.057Z,7.77
2023-04-04T15:58:26.450Z,7.78
2023-04-04T16:01:29.175Z,7.67
2023-04-04T16:04:32.208Z,7.61
2023-04-04T16:07:34.494Z,7.50
2023-04-04T16:10:37.166Z,7.51
2023-04-04T16:13:39.577Z,7.51
2023-04-04T16:16:42.200Z,7.48
2023-04-04T16:19:44.545Z,7.43
2023-04-04T16:22:47.243Z,7.34
2023-04-04T16:25:49.601Z,7.22
2023-04-04T16:28:52.787Z,7.08
2023-04-04T16:31:56.031Z,6.93
2023-04-04T16:34:58.741Z,6.78
2023-04-04T16:38:01.013Z,6.67
2023-04-04T16:41:04.854Z,6.62
2023-04-04T16:44:07.177Z,6.58
2023-04-04T16:47:11.023Z,6.45
2023-04-04T16:50:14.891Z,6.37
2023-04-04T16:53:17.513Z,6.27
2023-04-04T16:56:19.843Z,6.15
2023-04-04T16:59:22.507Z,6.05
2023-04-04T17:02:24.971Z,5.98
2023-04-04T17:05:27.556Z,5.86
2023-04-04T17:08:29.831Z,5.92
2023-04-04T17:11:32.561Z,5.73
2023-04-04T17:14:35.735Z,5.64
2023-04-04T17:17:38.396Z,5.61
2023-04-04T17:20:42.762Z,5.57
2023-04-04T17:23:46.041Z,5.49
2023-04-04T17:26:48.255Z,5.42
2023-04-04T17:29:50.861Z,5.37
2023-04-04T17:32:54.433Z,5.33
2023-04-04T17:35:57.242Z,5.29
2023-04-04T17:38:59.801Z,5.25
2023-04-04T17:42:02.792Z,5.25
2023-04-04T17:45:05.386Z,5.21
2023-04-04T17:48:08.071Z,5.19
2023-04-04T17:51:10.984Z,5.21
2023-04-04T17:54:14.033Z,5.21
2023-04-04T17:57:16.766Z,5.14
2023-04-04T18:00:20.031Z,5.12
2023-04-04T18:03:25.516Z,5.08
2023-04-04T18:06:28.167Z,5.07
2023-04-04T18:09:31.037Z,5.06
2023-04-04T18:12:35.702Z,5.01
2023-04-04T18:15:38.655Z,4.95
2023-04-04T18:18:41.434Z,4.90
2023-04-04T18:21:46.700Z,4.87
2023-04-04T18:24:49.153Z,4.87
2023-04-04T18:27:51.872Z,4.82
2023-04-04T18:30:55.911Z,4.79
2023-04-04T18:33:58.401Z,4.67
2023-04-04T18:37:01.306Z,4.53
2023-04-04T18:40:04.214Z,4.41
2023-04-04T18:43:09.660Z,4.29
2023-04-04T18:46:12.268Z,4.24
2023-04-04T18:49:14.736Z,4.06
2023-04-04T18:52:17.351Z,3.95
2023-04-04T18:55:19.830Z,3.85
2023-04-04T18:58:23.419Z,3.73
2023-04-04T19:01:26.431Z,3.63
2023-04-04T19:04:30.042Z,3.54
2023-04-04T19:07:32.649Z,3.43
2023-04-04T19:10:35.816Z,3.31
2023-04-04T19:13:38.421Z,3.35
2023-04-04T19:16:41.996Z,3.34
2023-04-04T19:19:44.409Z,3.24
2023-04-04T19:22:47.008Z,3.16
2023-04-04T19:25:50.892Z,3.03
2023-04-04T19:28:53.516Z,3.10
2023-04-04T19:31:56.078Z,2.98
2023-04-04T19:34:58.756Z,2.93
2023-04-04T19:38:01.006Z,2.86
2023-04-04T19:41:23.980Z,2.78
2023-04-04T19:44:26.762Z,2.84
2023-04-04T19:47:29.461Z,2.63
2023-04-04T19:50:36.181Z,2.75
2023-04-04T19:53:38.776Z,2.85
2023-04-04T19:56:41.234Z,2.71
2023-04-04T19:59:46.869Z,2.75
2023-04-04T20:02:50.277Z,2.75
2023-04-04T20:05:53.966Z,2.66
2023-04-04T20:08:58.042Z,2.63
2023-04-04T20:12:00.833Z,2.69
2023-04-04T20:15:04.882Z,2.64
2023-04-04T20:18:07.443Z,2.57
2023-04-04T20:21:09.855Z,2.55
2023-04-04T20:24:16.354Z,2.49
2023-04-04T20:27:24.510Z,2.55
2023-04-04T20:30:27.000Z,2.46
2023-04-04T20:33:30.671Z,2.57
2023-04-04T20:36:42.902Z,2.42
2023-04-04T20:39:46.595Z,2.51
2023-04-04T20:42:49.557Z,2.44
2023-04-04T20:45:52.030Z,2.44
2023-04-04T20:48:56.704Z,2.49
2023-04-04T20:51:59.402Z,2.49
2023-04-04T20:55:02.682Z,2.47
2023-04-04T20:58:31.551Z,2.45
2023-04-04T21:01:34.213Z,2.37
2023-04-04T21:04:36.962Z,2.40
2023-04-04T21:07:41.628Z,2.32
2023-04-04T21:10:48.309Z,2.37
2023-04-04T21:13:51.264Z,2.39
2023-04-04T21:16:53.572Z,2.33
2023-04-04T21:19:57.243Z,2.30
2023-04-04T21:22:59.637Z,2.25
2023-04-04T21:26:09.043Z,2.30
2023-04-04T21:29:21.247Z,2.22
2023-04-04T21:32:24.164Z,2.22
2023-04-04T21:35:46.715Z,2.12
2023-04-04T21:38:51.705Z,2.16
2023-04-04T21:41:58.028Z,2.07
2023-04-04T21:45:00.513Z,2.05
2023-04-04T21:48:02.864Z,2.09
2023-04-04T21:51:05.685Z,2.04
2023-04-04T21:54:08.262Z,2.05
2023-04-04T21:57:11.347Z,1.96
2023-04-04T22:00:14.009Z,1.98
2023-04-04T22:03:16.792Z,1.85
2023-04-04T22:06:23.402Z,1.88
2023-04-04T22:09:29.595Z,1.78
2023-04-04T22:12:33.243Z,1.82
2023-04-04T22:15:42.732Z,1.83
2023-04-04T22:18:48.745Z,1.75
2023-04-04T22:21:53.997Z,1.79
2023-04-04T22:25:04.001Z,1.83
2023-04-04T22:28:09.781Z,1.80
2023-04-04T22:31:12.472Z,1.76
2023-04-04T22:34:15.569Z,1.69
2023-04-04T22:37:19.552Z,1.80
2023-04-04T22:40:22.295Z,1.72
2023-04-04T22:43:25.986Z,1.69
2023-04-04T22:46:29.454Z,1.70
2023-04-04T22:49:45.910Z,1.71
2023-04-04T22:52:48.610Z,1.67
2023-04-04T22:55:58.423Z,1.70
2023-04-04T22:59:01.259Z,1.71
2023-04-04T23:02:03.987Z,1.67
2023-04-04T23:05:08.282Z,1.54
2023-04-04T23:08:10.869Z,1.52
2023-04-04T23:11:13.482Z,1.55
2023-04-04T23:14:16.032Z,1.51
2023-04-04T23:17:18.960Z,1.51
2023-04-04T23:20:21.263Z,1.57
2023-04-04T23:23:23.801Z,1.59
2023-04-04T23:26:27.284Z,1.48
2023-04-04T23:29:30.206Z,1.51
2023-04-04T23:32:32.883Z,1.51
2023-04-04T23:35:35.441Z,1.35
2023-04-04T23:38:37.704Z,1.20
2023-04-04T23:41:40.636Z,1.27
2023-04-04T23:44:43.161Z,1.34
2023-04-04T23:47:45.876Z,1.40
2023-04-04T23:50:50.064Z,1.36
2023-04-04T23:53:52.822Z,1.36
2023-04-04T23:56:55.136Z,1.38
2023-04-04T23:59:57.871Z,1.25
